TRA2W LPPD-EHAM
Flight info
| Callsign | TRA2W |
|---|---|
| Flight time | 3h 45m |
| Altitude | 32000 |
| Route | BEKUN DCT LENSI DCT ERPES DCT PETEK/N0463F340 DCT LOTEE DCT AZFIC DCT ERIGA DCT GODIX DCT PODEM DCT BAZOS DCT BELDI DCT VEKIN DCT ADUTO N873 FERDI/N0423F240 Y18 DENUT |
| Aircraft | B738/M-SDE2E3FGHIRWXY/LB1 |
Departure
| Time | 2026-04-27 18:07 |
|---|---|
| Airport | João Paulo II Airport (LPPD) |
Arrival
| Time | 2026-04-27 21:53 |
|---|---|
| Airport | Amsterdam Airport Schiphol (EHAM) |
| Time | Latitude | Longitude | Altitude | Speed | Heading |
|---|---|---|---|---|---|
| 2026-04-27 17:32 | 37.74881 | -25.71113 | 270 ft | 0 kts | 22° |
| 2026-04-27 18:00 | 37.74871 | -25.71119 | 270 ft | 3 kts | 22° |
| 2026-04-27 18:01 | 37.74853 | -25.71129 | 270 ft | 3 kts | 22° |
| 2026-04-27 18:01 | 37.74834 | -25.71138 | 270 ft | 3 kts | 23° |
| 2026-04-27 18:01 | 37.74821 | -25.71148 | 270 ft | 3 kts | 73° |
| 2026-04-27 18:01 | 37.74820 | -25.71167 | 270 ft | 2 kts | 111° |
| 2026-04-27 18:02 | 37.74825 | -25.71182 | 270 ft | 3 kts | 111° |
| 2026-04-27 18:02 | 37.74828 | -25.71192 | 270 ft | 0 kts | 111° |
| 2026-04-27 18:03 | 37.74828 | -25.71191 | 270 ft | 0 kts | 111° |
| 2026-04-27 18:04 | 37.74825 | -25.71183 | 270 ft | 2 kts | 112° |
| 2026-04-27 18:04 | 37.74818 | -25.71162 | 270 ft | 4 kts | 112° |
| 2026-04-27 18:04 | 37.74804 | -25.71115 | 270 ft | 7 kts | 112° |
| 2026-04-27 18:04 | 37.74778 | -25.71044 | 274 ft | 10 kts | 126° |
| 2026-04-27 18:05 | 37.74704 | -25.71023 | 270 ft | 13 kts | 182° |
| 2026-04-27 18:05 | 37.74618 | -25.71018 | 271 ft | 12 kts | 163° |
| 2026-04-27 18:05 | 37.74580 | -25.70970 | 270 ft | 0 kts | 110° |
| 2026-04-27 18:06 | 37.74547 | -25.70864 | 269 ft | 43 kts | 112° |
| 2026-04-27 18:06 | 37.74339 | -25.70205 | 244 ft | 116 kts | 111° |
| 2026-04-27 18:07 | 37.73972 | -25.69071 | 537 ft | 143 kts | 115° |
| 2026-04-27 18:07 | 37.73604 | -25.67906 | 1249 ft | 154 kts | 119° |
| 2026-04-27 18:07 | 37.73195 | -25.66564 | 1816 ft | 174 kts | 116° |
| 2026-04-27 18:07 | 37.72720 | -25.65041 | 2245 ft | 199 kts | 117° |
| 2026-04-27 18:08 | 37.72188 | -25.63304 | 2411 ft | 223 kts | 114° |
| 2026-04-27 18:08 | 37.71611 | -25.61448 | 2812 ft | 231 kts | 123° |
| 2026-04-27 18:08 | 37.70441 | -25.60034 | 3005 ft | 243 kts | 163° |
| 2026-04-27 18:08 | 37.68782 | -25.59986 | 3650 ft | 245 kts | 200° |
| 2026-04-27 18:09 | 37.67427 | -25.61289 | 4326 ft | 253 kts | 236° |
| 2026-04-27 18:09 | 37.66986 | -25.63424 | 5185 ft | 262 kts | 270° |
| 2026-04-27 18:09 | 37.67629 | -25.65617 | 5901 ft | 277 kts | 304° |
| 2026-04-27 18:09 | 37.69216 | -25.67062 | 6654 ft | 290 kts | 338° |
| 2026-04-27 18:10 | 37.71113 | -25.67809 | 7430 ft | 290 kts | 337° |
| 2026-04-27 18:10 | 37.72996 | -25.68780 | 8011 ft | 296 kts | 332° |
| 2026-04-27 18:10 | 37.74958 | -25.69677 | 8758 ft | 298 kts | 338° |
| 2026-04-27 18:10 | 37.76886 | -25.70665 | 9509 ft | 299 kts | 332° |
| 2026-04-27 18:11 | 37.78774 | -25.71753 | 10285 ft | 300 kts | 339° |
| 2026-04-27 18:11 | 37.80878 | -25.72079 | 10737 ft | 315 kts | 5° |
| 2026-04-27 18:11 | 37.83014 | -25.71180 | 10930 ft | 336 kts | 33° |
| 2026-04-27 18:11 | 37.84690 | -25.69040 | 11079 ft | 352 kts | 62° |
| 2026-04-27 18:12 | 37.85433 | -25.66098 | 11292 ft | 363 kts | 85° |
| 2026-04-27 18:12 | 37.85613 | -25.62873 | 11693 ft | 372 kts | 90° |
| 2026-04-27 18:12 | 37.85702 | -25.59566 | 12216 ft | 378 kts | 90° |
| 2026-04-27 18:12 | 37.85778 | -25.56218 | 12782 ft | 382 kts | 91° |
| 2026-04-27 18:13 | 37.85870 | -25.52832 | 13375 ft | 386 kts | 89° |
| 2026-04-27 18:13 | 37.85985 | -25.49413 | 13878 ft | 392 kts | 90° |
| 2026-04-27 18:13 | 37.86120 | -25.45974 | 14546 ft | 390 kts | 89° |
| 2026-04-27 18:13 | 37.86267 | -25.42586 | 15154 ft | 391 kts | 89° |
| 2026-04-27 18:14 | 37.86425 | -25.39115 | 15574 ft | 398 kts | 89° |
| 2026-04-27 18:14 | 37.86590 | -25.35607 | 16146 ft | 400 kts | 88° |
| 2026-04-27 18:14 | 37.86756 | -25.32070 | 16619 ft | 405 kts | 88° |
| 2026-04-27 18:14 | 37.86924 | -25.28485 | 17055 ft | 410 kts | 87° |
| 2026-04-27 18:15 | 37.87092 | -25.24889 | 17719 ft | 409 kts | 88° |
| 2026-04-27 18:15 | 37.87261 | -25.21269 | 18175 ft | 415 kts | 88° |
| 2026-04-27 18:15 | 37.87431 | -25.17606 | 18657 ft | 418 kts | 87° |
| 2026-04-27 18:15 | 37.87602 | -25.13910 | 19075 ft | 422 kts | 88° |
| 2026-04-27 18:16 | 37.87774 | -25.10167 | 19407 ft | 428 kts | 87° |
| 2026-04-27 18:16 | 37.87943 | -25.06460 | 19861 ft | 430 kts | 87° |
| 2026-04-27 18:16 | 37.88115 | -25.02658 | 20266 ft | 434 kts | 87° |
| 2026-04-27 18:16 | 37.88285 | -24.98862 | 20892 ft | 431 kts | 86° |
| 2026-04-27 18:17 | 37.88455 | -24.95047 | 21262 ft | 436 kts | 86° |
| 2026-04-27 18:17 | 37.88626 | -24.91180 | 21614 ft | 440 kts | 86° |
| 2026-04-27 18:17 | 37.88794 | -24.87344 | 22028 ft | 442 kts | 86° |
| 2026-04-27 18:17 | 37.88964 | -24.83434 | 22420 ft | 445 kts | 86° |
| 2026-04-27 18:18 | 37.89134 | -24.79494 | 22829 ft | 447 kts | 86° |
| 2026-04-27 18:18 | 37.89302 | -24.75561 | 23214 ft | 450 kts | 86° |
| 2026-04-27 18:18 | 37.89471 | -24.71583 | 23581 ft | 453 kts | 86° |
| 2026-04-27 18:18 | 37.89637 | -24.67636 | 23926 ft | 455 kts | 86° |
| 2026-04-27 18:19 | 37.89805 | -24.63631 | 24264 ft | 457 kts | 86° |
| 2026-04-27 18:19 | 37.89972 | -24.59597 | 24561 ft | 459 kts | 86° |
| 2026-04-27 18:19 | 37.90138 | -24.55548 | 24846 ft | 462 kts | 86° |
| 2026-04-27 18:19 | 37.90304 | -24.51473 | 25137 ft | 465 kts | 85° |
| 2026-04-27 18:20 | 37.90470 | -24.47362 | 25439 ft | 467 kts | 85° |
| 2026-04-27 18:20 | 37.90636 | -24.43241 | 25727 ft | 469 kts | 85° |
| 2026-04-27 18:20 | 37.90798 | -24.39151 | 26004 ft | 471 kts | 85° |
| 2026-04-27 18:20 | 37.90961 | -24.34992 | 26318 ft | 473 kts | 85° |
| 2026-04-27 18:21 | 37.91124 | -24.30817 | 26636 ft | 474 kts | 85° |
| 2026-04-27 18:21 | 37.91286 | -24.26628 | 26882 ft | 477 kts | 85° |
| 2026-04-27 18:21 | 37.91447 | -24.22414 | 27126 ft | 479 kts | 85° |
| 2026-04-27 18:21 | 37.91606 | -24.18228 | 27372 ft | 482 kts | 85° |
| 2026-04-27 18:22 | 37.91766 | -24.13980 | 27628 ft | 484 kts | 85° |
| 2026-04-27 18:22 | 37.91925 | -24.09708 | 27880 ft | 486 kts | 85° |
| 2026-04-27 18:22 | 37.92082 | -24.05425 | 28137 ft | 487 kts | 85° |
| 2026-04-27 18:22 | 37.92239 | -24.01136 | 28469 ft | 487 kts | 85° |
| 2026-04-27 18:23 | 37.92393 | -23.96845 | 28837 ft | 486 kts | 85° |
| 2026-04-27 18:23 | 37.92545 | -23.92575 | 29194 ft | 485 kts | 85° |
| 2026-04-27 18:23 | 37.92695 | -23.88352 | 29514 ft | 486 kts | 85° |
| 2026-04-27 18:23 | 37.92845 | -23.84077 | 29834 ft | 486 kts | 85° |
| 2026-04-27 18:24 | 37.92995 | -23.79745 | 30174 ft | 485 kts | 85° |
| 2026-04-27 18:24 | 37.93139 | -23.75529 | 30471 ft | 485 kts | 85° |
| 2026-04-27 18:24 | 37.93284 | -23.71263 | 30829 ft | 482 kts | 85° |
| 2026-04-27 18:24 | 37.93426 | -23.67023 | 31196 ft | 480 kts | 85° |
| 2026-04-27 18:25 | 37.93566 | -23.62794 | 31470 ft | 480 kts | 85° |
| 2026-04-27 18:25 | 37.93704 | -23.58616 | 31695 ft | 480 kts | 85° |
| 2026-04-27 18:25 | 37.93842 | -23.54375 | 31950 ft | 480 kts | 85° |
| 2026-04-27 18:25 | 37.93978 | -23.50153 | 32209 ft | 480 kts | 85° |
| 2026-04-27 18:26 | 37.94247 | -23.41640 | 32204 ft | 483 kts | 85° |
| 2026-04-27 18:26 | 37.94508 | -23.33186 | 32183 ft | 475 kts | 85° |
| 2026-04-27 18:27 | 37.94786 | -23.24830 | 32197 ft | 474 kts | 81° |
| 2026-04-27 18:27 | 37.95525 | -23.20854 | 32185 ft | 466 kts | 63° |
| 2026-04-27 18:27 | 37.96853 | -23.17115 | 32210 ft | 465 kts | 62° |
| 2026-04-27 18:28 | 37.99520 | -23.09627 | 32210 ft | 467 kts | 62° |
| 2026-04-27 18:28 | 38.02146 | -23.02067 | 32197 ft | 469 kts | 63° |
| 2026-04-27 18:29 | 38.04729 | -22.94507 | 32198 ft | 469 kts | 63° |
| 2026-04-27 18:29 | 38.07316 | -22.86887 | 32198 ft | 470 kts | 63° |
| 2026-04-27 18:30 | 38.09895 | -22.79272 | 32199 ft | 469 kts | 63° |
| 2026-04-27 18:30 | 38.12474 | -22.71645 | 32204 ft | 469 kts | 63° |
| 2026-04-27 18:31 | 38.15028 | -22.64074 | 32197 ft | 468 kts | 63° |
| 2026-04-27 18:31 | 38.17588 | -22.56467 | 32198 ft | 467 kts | 63° |
| 2026-04-27 18:32 | 38.20139 | -22.48864 | 32197 ft | 467 kts | 63° |
| 2026-04-27 18:32 | 38.22682 | -22.41266 | 32205 ft | 466 kts | 63° |
| 2026-04-27 18:33 | 38.25203 | -22.33715 | 32202 ft | 465 kts | 63° |
| 2026-04-27 18:33 | 38.27729 | -22.26129 | 32204 ft | 464 kts | 63° |
| 2026-04-27 18:34 | 38.30246 | -22.18549 | 32202 ft | 464 kts | 63° |
| 2026-04-27 18:34 | 38.32758 | -22.10967 | 32200 ft | 464 kts | 63° |
| 2026-04-27 18:35 | 38.35243 | -22.03443 | 32208 ft | 464 kts | 63° |
| 2026-04-27 18:35 | 38.37743 | -21.95856 | 32205 ft | 464 kts | 63° |
| 2026-04-27 18:36 | 38.40241 | -21.88255 | 32203 ft | 464 kts | 64° |
| 2026-04-27 18:36 | 38.42735 | -21.80645 | 32210 ft | 465 kts | 64° |
| 2026-04-27 18:37 | 38.45226 | -21.73025 | 32198 ft | 465 kts | 64° |
| 2026-04-27 18:37 | 38.47698 | -21.65440 | 32206 ft | 465 kts | 64° |
| 2026-04-27 18:38 | 38.50183 | -21.57796 | 32204 ft | 466 kts | 64° |
| 2026-04-27 18:38 | 38.52664 | -21.50144 | 32205 ft | 466 kts | 64° |
| 2026-04-27 18:39 | 38.54722 | -21.43783 | 32216 ft | 466 kts | 64° |
| 2026-04-27 18:39 | 38.57194 | -21.36120 | 32206 ft | 466 kts | 64° |
| 2026-04-27 18:40 | 38.59658 | -21.28462 | 32202 ft | 465 kts | 64° |
| 2026-04-27 18:40 | 38.62103 | -21.20843 | 32206 ft | 465 kts | 64° |
| 2026-04-27 18:41 | 38.64558 | -21.13172 | 32215 ft | 465 kts | 64° |
| 2026-04-27 18:41 | 38.67003 | -21.05511 | 32202 ft | 464 kts | 64° |
| 2026-04-27 18:42 | 38.69027 | -20.99152 | 32200 ft | 464 kts | 64° |
| 2026-04-27 18:42 | 38.71866 | -20.90208 | 32199 ft | 463 kts | 64° |
| 2026-04-27 18:43 | 38.74274 | -20.82601 | 32200 ft | 462 kts | 64° |
| 2026-04-27 18:43 | 38.76685 | -20.74967 | 32206 ft | 462 kts | 64° |
| 2026-04-27 18:44 | 38.79078 | -20.67364 | 32200 ft | 461 kts | 64° |
| 2026-04-27 18:44 | 38.81474 | -20.59733 | 32202 ft | 460 kts | 64° |
| 2026-04-27 18:45 | 38.83863 | -20.52103 | 32201 ft | 460 kts | 64° |
| 2026-04-27 18:45 | 38.86227 | -20.44532 | 32216 ft | 459 kts | 64° |
| 2026-04-27 18:46 | 38.88597 | -20.36922 | 32199 ft | 459 kts | 64° |
| 2026-04-27 18:46 | 38.90963 | -20.29302 | 32201 ft | 458 kts | 64° |
| 2026-04-27 18:47 | 38.93320 | -20.21690 | 32203 ft | 458 kts | 64° |
| 2026-04-27 18:47 | 38.95655 | -20.14130 | 32203 ft | 457 kts | 64° |
| 2026-04-27 18:48 | 38.97998 | -20.06522 | 32200 ft | 457 kts | 64° |
| 2026-04-27 18:48 | 39.00299 | -19.98934 | 32196 ft | 458 kts | 67° |
| 2026-04-27 18:49 | 39.02156 | -19.91066 | 32201 ft | 459 kts | 70° |
| 2026-04-27 18:49 | 39.03835 | -19.83178 | 32197 ft | 459 kts | 71° |
| 2026-04-27 18:50 | 39.05539 | -19.75260 | 32210 ft | 458 kts | 70° |
| 2026-04-27 18:50 | 39.07276 | -19.67344 | 32197 ft | 458 kts | 70° |
| 2026-04-27 18:51 | 39.09009 | -19.59497 | 32199 ft | 458 kts | 70° |
| 2026-04-27 18:51 | 39.10748 | -19.51605 | 32199 ft | 457 kts | 70° |
| 2026-04-27 18:52 | 39.12480 | -19.43715 | 32219 ft | 457 kts | 70° |
| 2026-04-27 18:53 | 39.15051 | -19.31942 | 32199 ft | 456 kts | 70° |
| 2026-04-27 18:53 | 39.16765 | -19.24055 | 32199 ft | 456 kts | 70° |
| 2026-04-27 18:54 | 39.18471 | -19.16175 | 32201 ft | 456 kts | 70° |
| 2026-04-27 18:54 | 39.20163 | -19.08336 | 32206 ft | 456 kts | 70° |
| 2026-04-27 18:55 | 39.21864 | -19.00424 | 32196 ft | 456 kts | 70° |
| 2026-04-27 18:55 | 39.23553 | -18.92541 | 32200 ft | 456 kts | 70° |
| 2026-04-27 18:56 | 39.25227 | -18.84699 | 32199 ft | 456 kts | 71° |
| 2026-04-27 18:56 | 39.26908 | -18.76797 | 32199 ft | 456 kts | 71° |
| 2026-04-27 18:57 | 39.28574 | -18.68934 | 32198 ft | 456 kts | 71° |
| 2026-04-27 18:57 | 39.30244 | -18.61026 | 32198 ft | 456 kts | 71° |
| 2026-04-27 18:58 | 39.31907 | -18.53117 | 32199 ft | 456 kts | 71° |
| 2026-04-27 18:58 | 39.33554 | -18.45261 | 32199 ft | 456 kts | 71° |
| 2026-04-27 18:59 | 39.35210 | -18.37328 | 32200 ft | 456 kts | 71° |
| 2026-04-27 18:59 | 39.36859 | -18.29404 | 32195 ft | 456 kts | 71° |
| 2026-04-27 19:00 | 39.38491 | -18.21531 | 32195 ft | 456 kts | 71° |
| 2026-04-27 19:00 | 39.40131 | -18.13590 | 32202 ft | 456 kts | 71° |
| 2026-04-27 19:01 | 39.41752 | -18.05707 | 32215 ft | 456 kts | 71° |
| 2026-04-27 19:01 | 39.43380 | -17.97764 | 32200 ft | 456 kts | 71° |
| 2026-04-27 19:02 | 39.45000 | -17.89826 | 32196 ft | 456 kts | 71° |
| 2026-04-27 19:02 | 39.46605 | -17.81936 | 32196 ft | 455 kts | 71° |
| 2026-04-27 19:03 | 39.48213 | -17.74001 | 32218 ft | 455 kts | 71° |
| 2026-04-27 19:03 | 39.49817 | -17.66056 | 32199 ft | 455 kts | 71° |
| 2026-04-27 19:04 | 39.51401 | -17.58177 | 32195 ft | 455 kts | 71° |
| 2026-04-27 19:04 | 39.52990 | -17.50243 | 32191 ft | 454 kts | 71° |
| 2026-04-27 19:05 | 39.54575 | -17.42299 | 32190 ft | 454 kts | 71° |
| 2026-04-27 19:05 | 39.56144 | -17.34409 | 32200 ft | 454 kts | 71° |
| 2026-04-27 19:06 | 39.57711 | -17.26492 | 32187 ft | 454 kts | 71° |
| 2026-04-27 19:06 | 39.59276 | -17.18557 | 32191 ft | 454 kts | 71° |
| 2026-04-27 19:07 | 39.60836 | -17.10620 | 32191 ft | 454 kts | 71° |
| 2026-04-27 19:07 | 39.62391 | -17.02676 | 32203 ft | 454 kts | 71° |
| 2026-04-27 19:08 | 39.63932 | -16.94771 | 32190 ft | 454 kts | 71° |
| 2026-04-27 19:08 | 39.65479 | -16.86803 | 32184 ft | 454 kts | 71° |
| 2026-04-27 19:09 | 39.67017 | -16.78847 | 32183 ft | 455 kts | 72° |
| 2026-04-27 19:09 | 39.68543 | -16.70928 | 32186 ft | 455 kts | 72° |
| 2026-04-27 19:10 | 39.70074 | -16.62947 | 32195 ft | 455 kts | 72° |
| 2026-04-27 19:10 | 39.71602 | -16.54950 | 32185 ft | 456 kts | 72° |
| 2026-04-27 19:11 | 39.73123 | -16.46958 | 32180 ft | 456 kts | 72° |
| 2026-04-27 19:11 | 39.74643 | -16.38943 | 32186 ft | 456 kts | 72° |
| 2026-04-27 19:12 | 39.76159 | -16.30913 | 32184 ft | 457 kts | 73° |
| 2026-04-27 19:12 | 39.77659 | -16.22936 | 32175 ft | 457 kts | 73° |
| 2026-04-27 19:13 | 39.79165 | -16.14889 | 32174 ft | 458 kts | 73° |
| 2026-04-27 19:13 | 39.80667 | -16.06834 | 32169 ft | 458 kts | 73° |
| 2026-04-27 19:14 | 39.82156 | -15.98813 | 32183 ft | 458 kts | 73° |
| 2026-04-27 19:14 | 39.83650 | -15.90729 | 32165 ft | 459 kts | 75° |
| 2026-04-27 19:15 | 39.85140 | -15.82638 | 32169 ft | 459 kts | 74° |
| 2026-04-27 19:15 | 39.86624 | -15.74536 | 32164 ft | 460 kts | 73° |
| 2026-04-27 19:16 | 39.88106 | -15.66432 | 32384 ft | 464 kts | 75° |
| 2026-04-27 19:16 | 39.88610 | -15.63666 | 32569 ft | 464 kts | 75° |
| 2026-04-27 19:16 | 39.89599 | -15.58219 | 32798 ft | 466 kts | 75° |
| 2026-04-27 19:16 | 39.90345 | -15.54100 | 32986 ft | 467 kts | 76° |
| 2026-04-27 19:17 | 39.91087 | -15.49980 | 33336 ft | 465 kts | 74° |
| 2026-04-27 19:17 | 39.91816 | -15.45939 | 33615 ft | 463 kts | 75° |
| 2026-04-27 19:17 | 39.92554 | -15.41848 | 33907 ft | 462 kts | 76° |
| 2026-04-27 19:17 | 39.93290 | -15.37761 | 34062 ft | 462 kts | 74° |
| 2026-04-27 19:18 | 39.94018 | -15.33705 | 34136 ft | 457 kts | 75° |
| 2026-04-27 19:18 | 39.95456 | -15.25668 | 34166 ft | 459 kts | 74° |
| 2026-04-27 19:19 | 39.96914 | -15.17465 | 34162 ft | 466 kts | 75° |
| 2026-04-27 19:19 | 39.98374 | -15.09235 | 34158 ft | 469 kts | 76° |
| 2026-04-27 19:20 | 40.00432 | -15.01247 | 34212 ft | 458 kts | 57° |
| 2026-04-27 19:20 | 40.02247 | -14.97842 | 34114 ft | 455 kts | 46° |
| 2026-04-27 19:20 | 40.04458 | -14.95012 | 34151 ft | 450 kts | 37° |
| 2026-04-27 19:21 | 40.09338 | -14.89881 | 34149 ft | 453 kts | 36° |
| 2026-04-27 19:21 | 40.14321 | -14.84714 | 34159 ft | 460 kts | 36° |
| 2026-04-27 19:22 | 40.19331 | -14.79423 | 34161 ft | 464 kts | 38° |
| 2026-04-27 19:22 | 40.24314 | -14.74107 | 34150 ft | 466 kts | 38° |
| 2026-04-27 19:23 | 40.29300 | -14.68759 | 34137 ft | 458 kts | 38° |
| 2026-04-27 19:23 | 40.34227 | -14.63467 | 34149 ft | 455 kts | 38° |
| 2026-04-27 19:24 | 40.39092 | -14.58244 | 34146 ft | 453 kts | 37° |
| 2026-04-27 19:24 | 40.43985 | -14.52982 | 34162 ft | 457 kts | 38° |
| 2026-04-27 19:25 | 40.48102 | -14.48540 | 34158 ft | 463 kts | 37° |
| 2026-04-27 19:25 | 40.53117 | -14.43115 | 34157 ft | 469 kts | 38° |
| 2026-04-27 19:26 | 40.58164 | -14.37645 | 34145 ft | 467 kts | 39° |
| 2026-04-27 19:26 | 40.63116 | -14.32264 | 34143 ft | 461 kts | 38° |
| 2026-04-27 19:27 | 40.68047 | -14.26898 | 34154 ft | 457 kts | 37° |
| 2026-04-27 19:27 | 40.72942 | -14.21565 | 34148 ft | 455 kts | 38° |
| 2026-04-27 19:28 | 40.77851 | -14.16208 | 34147 ft | 461 kts | 39° |
| 2026-04-27 19:28 | 40.82839 | -14.10750 | 34150 ft | 468 kts | 39° |
| 2026-04-27 19:29 | 40.87853 | -14.05251 | 34148 ft | 472 kts | 38° |
| 2026-04-27 19:29 | 40.92907 | -13.99697 | 34157 ft | 470 kts | 39° |
| 2026-04-27 19:30 | 40.97900 | -13.94200 | 34149 ft | 463 kts | 38° |
| 2026-04-27 19:30 | 41.02805 | -13.88792 | 34148 ft | 459 kts | 38° |
| 2026-04-27 19:31 | 41.07730 | -13.83349 | 34149 ft | 463 kts | 39° |
| 2026-04-27 19:31 | 41.12710 | -13.77833 | 34148 ft | 470 kts | 39° |
| 2026-04-27 19:32 | 41.17736 | -13.72254 | 34157 ft | 475 kts | 39° |
| 2026-04-27 19:32 | 41.22782 | -13.66638 | 34154 ft | 471 kts | 39° |
| 2026-04-27 19:33 | 41.27776 | -13.61074 | 34147 ft | 464 kts | 39° |
| 2026-04-27 19:33 | 41.32684 | -13.55593 | 34146 ft | 463 kts | 39° |
| 2026-04-27 19:34 | 41.37631 | -13.50055 | 34145 ft | 466 kts | 39° |
| 2026-04-27 19:34 | 41.42625 | -13.44457 | 34157 ft | 471 kts | 39° |
| 2026-04-27 19:35 | 41.47656 | -13.38804 | 34155 ft | 474 kts | 40° |
| 2026-04-27 19:35 | 41.52669 | -13.33161 | 34157 ft | 473 kts | 39° |
| 2026-04-27 19:36 | 41.57704 | -13.27478 | 34148 ft | 473 kts | 39° |
| 2026-04-27 19:36 | 41.62716 | -13.21808 | 34132 ft | 471 kts | 39° |
| 2026-04-27 19:37 | 41.67699 | -13.16162 | 34132 ft | 468 kts | 39° |
| 2026-04-27 19:37 | 41.72646 | -13.10541 | 34134 ft | 467 kts | 40° |
| 2026-04-27 19:38 | 41.77625 | -13.04876 | 34160 ft | 471 kts | 40° |
| 2026-04-27 19:38 | 41.82624 | -12.99175 | 34163 ft | 476 kts | 40° |
| 2026-04-27 19:39 | 41.87701 | -12.93372 | 34148 ft | 480 kts | 39° |
| 2026-04-27 19:39 | 41.92748 | -12.87592 | 34141 ft | 479 kts | 39° |
| 2026-04-27 19:40 | 41.97783 | -12.81812 | 34137 ft | 473 kts | 40° |
| 2026-04-27 19:40 | 42.02774 | -12.76073 | 34137 ft | 469 kts | 40° |
| 2026-04-27 19:41 | 42.07735 | -12.70355 | 34168 ft | 470 kts | 40° |
| 2026-04-27 19:41 | 42.12699 | -12.64619 | 34161 ft | 475 kts | 40° |
| 2026-04-27 19:42 | 42.17748 | -12.58774 | 34140 ft | 479 kts | 40° |
| 2026-04-27 19:42 | 42.22795 | -12.52918 | 34135 ft | 481 kts | 40° |
| 2026-04-27 19:43 | 42.27870 | -12.47017 | 34141 ft | 479 kts | 40° |
| 2026-04-27 19:43 | 42.32921 | -12.41130 | 34157 ft | 478 kts | 40° |
| 2026-04-27 19:44 | 42.37952 | -12.35254 | 34156 ft | 476 kts | 40° |
| 2026-04-27 19:44 | 42.42951 | -12.29402 | 34135 ft | 472 kts | 40° |
| 2026-04-27 19:45 | 42.47881 | -12.23618 | 34130 ft | 473 kts | 40° |
| 2026-04-27 19:45 | 42.52875 | -12.17747 | 34133 ft | 475 kts | 40° |
| 2026-04-27 19:46 | 42.57867 | -12.11866 | 34162 ft | 476 kts | 40° |
| 2026-04-27 19:46 | 42.62885 | -12.05939 | 34166 ft | 478 kts | 40° |
| 2026-04-27 19:47 | 42.67651 | -11.99595 | 34140 ft | 481 kts | 52° |
| 2026-04-27 19:47 | 42.71003 | -11.91823 | 34152 ft | 480 kts | 65° |
| 2026-04-27 19:48 | 42.73866 | -11.83605 | 34131 ft | 479 kts | 65° |
| 2026-04-27 19:48 | 42.76692 | -11.75489 | 34137 ft | 476 kts | 65° |
| 2026-04-27 19:49 | 42.79566 | -11.67344 | 34132 ft | 476 kts | 64° |
| 2026-04-27 19:49 | 42.82442 | -11.59233 | 34140 ft | 478 kts | 64° |
| 2026-04-27 19:50 | 42.85341 | -11.51044 | 34148 ft | 480 kts | 64° |
| 2026-04-27 19:50 | 42.88234 | -11.42848 | 34152 ft | 481 kts | 65° |
| 2026-04-27 19:51 | 42.91142 | -11.34579 | 34149 ft | 481 kts | 65° |
| 2026-04-27 19:51 | 42.94023 | -11.26364 | 34130 ft | 478 kts | 65° |
| 2026-04-27 19:52 | 42.96868 | -11.18222 | 34131 ft | 477 kts | 65° |
| 2026-04-27 19:52 | 42.99723 | -11.10029 | 34121 ft | 477 kts | 65° |
| 2026-04-27 19:53 | 43.03987 | -10.97749 | 34147 ft | 480 kts | 65° |
| 2026-04-27 19:53 | 43.06861 | -10.89439 | 34135 ft | 483 kts | 65° |
| 2026-04-27 19:54 | 43.09714 | -10.81165 | 34123 ft | 485 kts | 65° |
| 2026-04-27 19:54 | 43.12598 | -10.72778 | 34123 ft | 485 kts | 65° |
| 2026-04-27 19:55 | 43.15462 | -10.64422 | 34118 ft | 483 kts | 65° |
| 2026-04-27 19:55 | 43.18286 | -10.56159 | 34114 ft | 480 kts | 65° |
| 2026-04-27 19:56 | 43.21124 | -10.47829 | 34119 ft | 482 kts | 65° |
| 2026-04-27 19:56 | 43.23945 | -10.39523 | 34121 ft | 484 kts | 65° |
| 2026-04-27 19:57 | 43.26793 | -10.31110 | 34121 ft | 485 kts | 65° |
| 2026-04-27 19:57 | 43.29632 | -10.22701 | 34116 ft | 483 kts | 65° |
| 2026-04-27 19:58 | 43.32435 | -10.14371 | 34111 ft | 480 kts | 66° |
| 2026-04-27 19:58 | 43.35229 | -10.06046 | 34110 ft | 478 kts | 66° |
| 2026-04-27 19:59 | 43.38003 | -9.97751 | 34102 ft | 477 kts | 66° |
| 2026-04-27 19:59 | 43.40753 | -9.89500 | 34117 ft | 476 kts | 66° |
| 2026-04-27 20:00 | 43.43514 | -9.81196 | 34106 ft | 477 kts | 66° |
| 2026-04-27 20:00 | 43.46272 | -9.72871 | 34112 ft | 479 kts | 66° |
| 2026-04-27 20:01 | 43.49039 | -9.64496 | 34108 ft | 481 kts | 66° |
| 2026-04-27 20:01 | 43.51793 | -9.56132 | 34110 ft | 483 kts | 66° |
| 2026-04-27 20:02 | 43.54573 | -9.47664 | 34109 ft | 484 kts | 66° |
| 2026-04-27 20:02 | 43.57333 | -9.39230 | 34101 ft | 486 kts | 66° |
| 2026-04-27 20:03 | 43.60108 | -9.30721 | 34105 ft | 487 kts | 66° |
| 2026-04-27 20:03 | 43.62886 | -9.22180 | 34103 ft | 487 kts | 66° |
| 2026-04-27 20:04 | 43.65645 | -9.13667 | 34102 ft | 487 kts | 67° |
| 2026-04-27 20:04 | 43.67945 | -9.06549 | 34098 ft | 487 kts | 67° |
| 2026-04-27 20:05 | 43.71171 | -8.96535 | 34103 ft | 487 kts | 67° |
| 2026-04-27 20:05 | 43.73910 | -8.88003 | 34109 ft | 487 kts | 67° |
| 2026-04-27 20:06 | 43.76650 | -8.79437 | 34106 ft | 487 kts | 67° |
| 2026-04-27 20:06 | 43.79385 | -8.70860 | 34102 ft | 486 kts | 67° |
| 2026-04-27 20:07 | 43.82113 | -8.62279 | 34101 ft | 486 kts | 67° |
| 2026-04-27 20:07 | 43.84819 | -8.53736 | 34112 ft | 487 kts | 67° |
| 2026-04-27 20:08 | 43.87542 | -8.45115 | 34111 ft | 487 kts | 67° |
| 2026-04-27 20:08 | 43.90243 | -8.36535 | 34113 ft | 487 kts | 67° |
| 2026-04-27 20:09 | 43.92951 | -8.27902 | 34122 ft | 488 kts | 67° |
| 2026-04-27 20:09 | 43.95642 | -8.19294 | 34126 ft | 489 kts | 68° |
| 2026-04-27 20:10 | 43.98342 | -8.10632 | 34122 ft | 489 kts | 68° |
| 2026-04-27 20:10 | 44.01041 | -8.01943 | 34126 ft | 490 kts | 68° |
| 2026-04-27 20:11 | 44.03737 | -7.93235 | 34129 ft | 490 kts | 68° |
| 2026-04-27 20:11 | 44.06418 | -7.84545 | 34126 ft | 490 kts | 68° |
| 2026-04-27 20:12 | 44.08646 | -7.77301 | 34129 ft | 490 kts | 68° |
| 2026-04-27 20:12 | 44.11327 | -7.68557 | 34126 ft | 490 kts | 68° |
| 2026-04-27 20:13 | 44.14001 | -7.59808 | 34135 ft | 490 kts | 68° |
| 2026-04-27 20:13 | 44.16646 | -7.51123 | 34137 ft | 490 kts | 68° |
| 2026-04-27 20:14 | 44.19302 | -7.42372 | 34150 ft | 490 kts | 68° |
| 2026-04-27 20:14 | 44.21951 | -7.33614 | 34140 ft | 490 kts | 68° |
| 2026-04-27 20:15 | 44.24582 | -7.24885 | 34141 ft | 490 kts | 68° |
| 2026-04-27 20:15 | 44.27225 | -7.16087 | 34135 ft | 490 kts | 69° |
| 2026-04-27 20:16 | 44.29837 | -7.07363 | 34147 ft | 490 kts | 69° |
| 2026-04-27 20:16 | 44.32467 | -6.98548 | 34143 ft | 490 kts | 69° |
| 2026-04-27 20:17 | 44.35083 | -6.89748 | 34152 ft | 491 kts | 69° |
| 2026-04-27 20:17 | 44.37697 | -6.80927 | 34132 ft | 491 kts | 69° |
| 2026-04-27 20:18 | 44.40304 | -6.72095 | 34144 ft | 491 kts | 69° |
| 2026-04-27 20:18 | 44.42893 | -6.63293 | 34178 ft | 492 kts | 69° |
| 2026-04-27 20:19 | 44.45498 | -6.54409 | 34162 ft | 493 kts | 69° |
| 2026-04-27 20:19 | 44.48100 | -6.45506 | 34141 ft | 494 kts | 70° |
| 2026-04-27 20:20 | 44.50696 | -6.36586 | 34153 ft | 494 kts | 70° |
| 2026-04-27 20:20 | 44.53269 | -6.27715 | 34152 ft | 494 kts | 70° |
| 2026-04-27 20:21 | 44.55857 | -6.18763 | 34162 ft | 495 kts | 70° |
| 2026-04-27 20:21 | 44.58435 | -6.09808 | 34158 ft | 495 kts | 70° |
| 2026-04-27 20:22 | 44.60995 | -6.00885 | 34146 ft | 496 kts | 70° |
| 2026-04-27 20:22 | 44.63568 | -5.91891 | 34166 ft | 497 kts | 70° |
| 2026-04-27 20:23 | 44.66692 | -5.83195 | 34169 ft | 501 kts | 56° |
| 2026-04-27 20:23 | 44.68867 | -5.79363 | 34158 ft | 502 kts | 45° |
| 2026-04-27 20:23 | 44.71357 | -5.75901 | 34182 ft | 502 kts | 43° |
| 2026-04-27 20:24 | 44.76443 | -5.69104 | 34152 ft | 504 kts | 43° |
| 2026-04-27 20:24 | 44.81481 | -5.62325 | 34156 ft | 505 kts | 43° |
| 2026-04-27 20:25 | 44.86529 | -5.55416 | 34185 ft | 505 kts | 44° |
| 2026-04-27 20:25 | 44.91567 | -5.48457 | 34168 ft | 506 kts | 44° |
| 2026-04-27 20:26 | 44.96602 | -5.41476 | 34168 ft | 506 kts | 44° |
| 2026-04-27 20:26 | 45.01600 | -5.34534 | 34151 ft | 506 kts | 44° |
| 2026-04-27 20:27 | 45.06631 | -5.27533 | 34167 ft | 506 kts | 44° |
| 2026-04-27 20:27 | 45.11658 | -5.20521 | 34170 ft | 506 kts | 44° |
| 2026-04-27 20:28 | 45.16638 | -5.13555 | 34170 ft | 506 kts | 44° |
| 2026-04-27 20:28 | 45.20834 | -5.07671 | 34165 ft | 506 kts | 44° |
| 2026-04-27 20:29 | 45.26649 | -4.99496 | 34157 ft | 506 kts | 44° |
| 2026-04-27 20:29 | 45.31647 | -4.92451 | 34173 ft | 506 kts | 44° |
| 2026-04-27 20:30 | 45.36609 | -4.85436 | 34167 ft | 506 kts | 44° |
| 2026-04-27 20:30 | 45.41595 | -4.78369 | 34169 ft | 505 kts | 44° |
| 2026-04-27 20:31 | 45.46582 | -4.71282 | 34168 ft | 505 kts | 44° |
| 2026-04-27 20:31 | 45.51565 | -4.64182 | 34159 ft | 506 kts | 44° |
| 2026-04-27 20:32 | 45.56506 | -4.57124 | 34170 ft | 505 kts | 44° |
| 2026-04-27 20:32 | 45.61476 | -4.50004 | 34166 ft | 506 kts | 44° |
| 2026-04-27 20:33 | 45.66442 | -4.42872 | 34166 ft | 506 kts | 44° |
| 2026-04-27 20:33 | 45.71370 | -4.35776 | 34182 ft | 505 kts | 44° |
| 2026-04-27 20:34 | 45.76326 | -4.28620 | 34164 ft | 505 kts | 44° |
| 2026-04-27 20:34 | 45.81275 | -4.21455 | 34164 ft | 504 kts | 44° |
| 2026-04-27 20:35 | 45.86206 | -4.14297 | 34166 ft | 503 kts | 44° |
| 2026-04-27 20:35 | 45.91122 | -4.07142 | 34195 ft | 502 kts | 44° |
| 2026-04-27 20:36 | 45.95993 | -4.00033 | 34169 ft | 501 kts | 44° |
| 2026-04-27 20:36 | 46.00871 | -3.92894 | 34150 ft | 499 kts | 44° |
| 2026-04-27 20:37 | 46.05695 | -3.85816 | 34162 ft | 497 kts | 44° |
| 2026-04-27 20:37 | 46.10539 | -3.78690 | 34168 ft | 496 kts | 44° |
| 2026-04-27 20:38 | 46.15369 | -3.71566 | 34170 ft | 495 kts | 44° |
| 2026-04-27 20:38 | 46.20148 | -3.64499 | 34168 ft | 495 kts | 44° |
| 2026-04-27 20:39 | 46.24955 | -3.57369 | 34156 ft | 495 kts | 44° |
| 2026-04-27 20:39 | 46.29757 | -3.50230 | 34172 ft | 495 kts | 44° |
| 2026-04-27 20:40 | 46.34559 | -3.43069 | 34176 ft | 496 kts | 44° |
| 2026-04-27 20:40 | 46.39348 | -3.35911 | 34171 ft | 497 kts | 44° |
| 2026-04-27 20:41 | 46.44163 | -3.28692 | 34168 ft | 497 kts | 44° |
| 2026-04-27 20:41 | 46.48972 | -3.21464 | 34158 ft | 498 kts | 44° |
| 2026-04-27 20:42 | 46.53781 | -3.14217 | 34189 ft | 497 kts | 44° |
| 2026-04-27 20:42 | 46.58237 | -3.06591 | 34159 ft | 500 kts | 57° |
| 2026-04-27 20:43 | 46.61725 | -2.97834 | 34164 ft | 499 kts | 60° |
| 2026-04-27 20:43 | 46.65144 | -2.89026 | 34165 ft | 499 kts | 59° |
| 2026-04-27 20:44 | 46.68606 | -2.80270 | 34153 ft | 498 kts | 59° |
| 2026-04-27 20:44 | 46.72063 | -2.71592 | 34166 ft | 498 kts | 59° |
| 2026-04-27 20:45 | 46.75538 | -2.62847 | 34167 ft | 498 kts | 59° |
| 2026-04-27 20:45 | 46.78987 | -2.54128 | 34161 ft | 498 kts | 59° |
| 2026-04-27 20:46 | 46.82448 | -2.45347 | 34163 ft | 498 kts | 59° |
| 2026-04-27 20:46 | 46.85996 | -2.36634 | 34149 ft | 498 kts | 53° |
| 2026-04-27 20:47 | 46.90589 | -2.29193 | 34166 ft | 495 kts | 42° |
| 2026-04-27 20:47 | 46.95512 | -2.22073 | 34172 ft | 496 kts | 42° |
| 2026-04-27 20:48 | 46.99588 | -2.16126 | 34157 ft | 497 kts | 42° |
| 2026-04-27 20:48 | 47.05246 | -2.07735 | 34145 ft | 497 kts | 43° |
| 2026-04-27 20:49 | 47.10101 | -2.00469 | 34138 ft | 497 kts | 43° |
| 2026-04-27 20:49 | 47.14936 | -1.93210 | 34150 ft | 497 kts | 43° |
| 2026-04-27 20:50 | 47.19748 | -1.85971 | 34164 ft | 497 kts | 43° |
| 2026-04-27 20:50 | 47.24576 | -1.78689 | 34144 ft | 496 kts | 43° |
| 2026-04-27 20:51 | 47.29389 | -1.71413 | 34153 ft | 494 kts | 43° |
| 2026-04-27 20:51 | 47.34154 | -1.64188 | 34139 ft | 493 kts | 43° |
| 2026-04-27 20:52 | 47.38926 | -1.56931 | 34176 ft | 491 kts | 43° |
| 2026-04-27 20:52 | 47.43680 | -1.49684 | 34145 ft | 490 kts | 43° |
| 2026-04-27 20:53 | 47.48418 | -1.42440 | 34144 ft | 489 kts | 43° |
| 2026-04-27 20:53 | 47.53120 | -1.35230 | 34139 ft | 488 kts | 43° |
| 2026-04-27 20:54 | 47.60186 | -1.24360 | 34177 ft | 487 kts | 43° |
| 2026-04-27 20:55 | 47.64889 | -1.17101 | 34158 ft | 487 kts | 43° |
| 2026-04-27 20:55 | 47.69557 | -1.09875 | 34149 ft | 487 kts | 43° |
| 2026-04-27 20:56 | 47.74243 | -1.02601 | 34159 ft | 486 kts | 43° |
| 2026-04-27 20:56 | 47.78922 | -0.95316 | 34154 ft | 486 kts | 43° |
| 2026-04-27 20:57 | 47.83562 | -0.88074 | 34175 ft | 486 kts | 44° |
| 2026-04-27 20:57 | 47.88235 | -0.80759 | 34178 ft | 486 kts | 43° |
| 2026-04-27 20:58 | 47.92870 | -0.73483 | 34183 ft | 486 kts | 43° |
| 2026-04-27 20:58 | 47.97529 | -0.66150 | 34188 ft | 486 kts | 44° |
| 2026-04-27 20:59 | 48.01396 | -0.60047 | 34198 ft | 486 kts | 44° |
| 2026-04-27 20:59 | 48.06037 | -0.52703 | 34185 ft | 486 kts | 44° |
| 2026-04-27 21:00 | 48.10678 | -0.45339 | 34173 ft | 485 kts | 44° |
| 2026-04-27 21:00 | 48.15301 | -0.37984 | 34175 ft | 485 kts | 44° |
| 2026-04-27 21:01 | 48.19896 | -0.30650 | 34174 ft | 485 kts | 44° |
| 2026-04-27 21:01 | 48.24502 | -0.23279 | 34195 ft | 483 kts | 44° |
| 2026-04-27 21:02 | 48.29097 | -0.15904 | 34178 ft | 482 kts | 44° |
| 2026-04-27 21:02 | 48.33666 | -0.08552 | 34170 ft | 479 kts | 44° |
| 2026-04-27 21:03 | 48.38153 | -0.01240 | 34174 ft | 477 kts | 46° |
| 2026-04-27 21:03 | 48.42527 | 0.06320 | 34178 ft | 477 kts | 46° |
| 2026-04-27 21:04 | 48.46821 | 0.13854 | 34182 ft | 477 kts | 47° |
| 2026-04-27 21:04 | 48.51153 | 0.21433 | 34182 ft | 476 kts | 47° |
| 2026-04-27 21:05 | 48.55491 | 0.29006 | 34186 ft | 476 kts | 47° |
| 2026-04-27 21:05 | 48.59804 | 0.36545 | 34185 ft | 476 kts | 47° |
| 2026-04-27 21:06 | 48.64138 | 0.44145 | 34197 ft | 476 kts | 46° |
| 2026-04-27 21:06 | 48.68467 | 0.51759 | 34192 ft | 477 kts | 47° |
| 2026-04-27 21:07 | 48.72793 | 0.59392 | 34198 ft | 477 kts | 47° |
| 2026-04-27 21:07 | 48.77084 | 0.66984 | 34183 ft | 477 kts | 47° |
| 2026-04-27 21:08 | 48.81391 | 0.74627 | 34181 ft | 476 kts | 47° |
| 2026-04-27 21:08 | 48.85686 | 0.82271 | 34198 ft | 475 kts | 47° |
| 2026-04-27 21:09 | 48.89968 | 0.89912 | 34172 ft | 475 kts | 47° |
| 2026-04-27 21:09 | 48.94228 | 0.97537 | 34193 ft | 475 kts | 47° |
| 2026-04-27 21:10 | 48.98512 | 1.05225 | 34194 ft | 477 kts | 47° |
| 2026-04-27 21:10 | 49.02809 | 1.12962 | 34183 ft | 479 kts | 47° |
| 2026-04-27 21:11 | 49.07118 | 1.20741 | 34200 ft | 480 kts | 47° |
| 2026-04-27 21:11 | 49.11428 | 1.28549 | 34189 ft | 481 kts | 47° |
| 2026-04-27 21:12 | 49.15728 | 1.36361 | 34176 ft | 480 kts | 47° |
| 2026-04-27 21:12 | 49.20019 | 1.44178 | 34184 ft | 480 kts | 47° |
| 2026-04-27 21:13 | 49.24282 | 1.51965 | 34180 ft | 480 kts | 47° |
| 2026-04-27 21:13 | 49.28765 | 1.59510 | 34188 ft | 477 kts | 41° |
| 2026-04-27 21:14 | 49.33622 | 1.66439 | 34184 ft | 477 kts | 39° |
| 2026-04-27 21:14 | 49.38490 | 1.73383 | 34183 ft | 477 kts | 40° |
| 2026-04-27 21:15 | 49.43301 | 1.80412 | 34171 ft | 478 kts | 41° |
| 2026-04-27 21:15 | 49.48103 | 1.87487 | 34186 ft | 478 kts | 41° |
| 2026-04-27 21:16 | 49.52885 | 1.94538 | 34202 ft | 480 kts | 40° |
| 2026-04-27 21:16 | 49.57717 | 2.01678 | 34192 ft | 481 kts | 40° |
| 2026-04-27 21:17 | 49.62555 | 2.08847 | 34184 ft | 482 kts | 40° |
| 2026-04-27 21:17 | 49.67365 | 2.15997 | 34185 ft | 482 kts | 41° |
| 2026-04-27 21:18 | 49.72204 | 2.23212 | 34185 ft | 483 kts | 41° |
| 2026-04-27 21:18 | 49.77042 | 2.30446 | 34186 ft | 484 kts | 40° |
| 2026-04-27 21:19 | 49.81882 | 2.37706 | 34179 ft | 484 kts | 41° |
| 2026-04-27 21:19 | 49.86725 | 2.44990 | 34173 ft | 485 kts | 41° |
| 2026-04-27 21:20 | 49.93962 | 2.55916 | 34189 ft | 485 kts | 41° |
| 2026-04-27 21:20 | 49.98798 | 2.63253 | 34182 ft | 486 kts | 41° |
| 2026-04-27 21:21 | 50.03604 | 2.70592 | 34187 ft | 486 kts | 41° |
| 2026-04-27 21:21 | 50.08427 | 2.77979 | 34171 ft | 486 kts | 41° |
| 2026-04-27 21:22 | 50.13246 | 2.85381 | 34183 ft | 486 kts | 41° |
| 2026-04-27 21:22 | 50.18062 | 2.92797 | 34194 ft | 487 kts | 41° |
| 2026-04-27 21:23 | 50.22856 | 3.00203 | 34180 ft | 487 kts | 41° |
| 2026-04-27 21:23 | 50.27685 | 3.07685 | 34176 ft | 487 kts | 41° |
| 2026-04-27 21:24 | 50.32501 | 3.15171 | 34180 ft | 487 kts | 41° |
| 2026-04-27 21:24 | 50.37275 | 3.22612 | 34180 ft | 487 kts | 41° |
| 2026-04-27 21:25 | 50.42484 | 3.29290 | 34186 ft | 478 kts | 25° |
| 2026-04-27 21:25 | 50.48436 | 3.33852 | 34180 ft | 475 kts | 20° |
| 2026-04-27 21:26 | 50.51410 | 3.36101 | 33449 ft | 485 kts | 21° |
| 2026-04-27 21:26 | 50.54479 | 3.38339 | 32743 ft | 484 kts | 19° |
| 2026-04-27 21:26 | 50.57559 | 3.40466 | 32212 ft | 481 kts | 19° |
| 2026-04-27 21:26 | 50.60615 | 3.42533 | 31795 ft | 476 kts | 19° |
| 2026-04-27 21:27 | 50.63651 | 3.44584 | 31313 ft | 472 kts | 19° |
| 2026-04-27 21:27 | 50.66664 | 3.46632 | 30868 ft | 469 kts | 19° |
| 2026-04-27 21:27 | 50.69608 | 3.48648 | 30414 ft | 466 kts | 20° |
| 2026-04-27 21:27 | 50.72582 | 3.50698 | 29905 ft | 463 kts | 20° |
| 2026-04-27 21:28 | 50.75523 | 3.52734 | 29400 ft | 459 kts | 20° |
| 2026-04-27 21:28 | 50.78440 | 3.54757 | 28944 ft | 455 kts | 20° |
| 2026-04-27 21:28 | 50.81327 | 3.56762 | 28472 ft | 451 kts | 19° |
| 2026-04-27 21:28 | 50.84191 | 3.58751 | 28041 ft | 447 kts | 19° |
| 2026-04-27 21:29 | 50.86997 | 3.60702 | 27579 ft | 443 kts | 19° |
| 2026-04-27 21:29 | 50.89831 | 3.62556 | 27118 ft | 437 kts | 13° |
| 2026-04-27 21:29 | 50.92740 | 3.63734 | 26677 ft | 427 kts | 4° |
| 2026-04-27 21:29 | 50.95670 | 3.64154 | 26241 ft | 418 kts | 356° |
| 2026-04-27 21:30 | 50.98572 | 3.64305 | 25812 ft | 414 kts | 356° |
| 2026-04-27 21:30 | 51.01412 | 3.64435 | 25389 ft | 411 kts | 356° |
| 2026-04-27 21:30 | 51.04267 | 3.64578 | 24968 ft | 408 kts | 356° |
| 2026-04-27 21:30 | 51.07103 | 3.64739 | 24547 ft | 405 kts | 356° |
| 2026-04-27 21:31 | 51.09918 | 3.64911 | 24134 ft | 403 kts | 356° |
| 2026-04-27 21:31 | 51.12682 | 3.65089 | 23712 ft | 400 kts | 356° |
| 2026-04-27 21:31 | 51.15456 | 3.65269 | 23219 ft | 398 kts | 356° |
| 2026-04-27 21:31 | 51.18216 | 3.65450 | 22777 ft | 394 kts | 356° |
| 2026-04-27 21:32 | 51.20947 | 3.65629 | 22366 ft | 390 kts | 357° |
| 2026-04-27 21:32 | 51.23647 | 3.65804 | 21956 ft | 386 kts | 356° |
| 2026-04-27 21:32 | 51.26323 | 3.65845 | 21523 ft | 382 kts | 354° |
| 2026-04-27 21:32 | 51.28968 | 3.65761 | 21130 ft | 378 kts | 354° |
| 2026-04-27 21:33 | 51.31559 | 3.65644 | 20719 ft | 376 kts | 354° |
| 2026-04-27 21:33 | 51.34166 | 3.65526 | 20315 ft | 373 kts | 354° |
| 2026-04-27 21:33 | 51.36754 | 3.65419 | 19919 ft | 371 kts | 355° |
| 2026-04-27 21:33 | 51.39335 | 3.65323 | 19531 ft | 369 kts | 355° |
| 2026-04-27 21:34 | 51.41898 | 3.65234 | 19149 ft | 367 kts | 355° |
| 2026-04-27 21:34 | 51.44444 | 3.65151 | 18761 ft | 365 kts | 356° |
| 2026-04-27 21:34 | 51.46976 | 3.65070 | 18367 ft | 363 kts | 356° |
| 2026-04-27 21:34 | 51.49506 | 3.64991 | 17941 ft | 361 kts | 356° |
| 2026-04-27 21:35 | 51.51976 | 3.64913 | 17559 ft | 358 kts | 357° |
| 2026-04-27 21:35 | 51.54461 | 3.64836 | 17164 ft | 356 kts | 357° |
| 2026-04-27 21:35 | 51.56931 | 3.64758 | 16776 ft | 353 kts | 357° |
| 2026-04-27 21:35 | 51.59380 | 3.64680 | 16393 ft | 350 kts | 356° |
| 2026-04-27 21:36 | 51.61816 | 3.64603 | 16023 ft | 348 kts | 357° |
| 2026-04-27 21:36 | 51.64232 | 3.64527 | 15643 ft | 345 kts | 357° |
| 2026-04-27 21:36 | 51.66598 | 3.64452 | 15277 ft | 343 kts | 356° |
| 2026-04-27 21:36 | 51.68977 | 3.64392 | 14905 ft | 341 kts | 360° |
| 2026-04-27 21:37 | 51.71298 | 3.65202 | 14504 ft | 344 kts | 25° |
| 2026-04-27 21:37 | 51.73243 | 3.67438 | 14099 ft | 346 kts | 45° |
| 2026-04-27 21:37 | 51.74666 | 3.70575 | 13683 ft | 345 kts | 56° |
| 2026-04-27 21:37 | 51.75948 | 3.73848 | 13275 ft | 343 kts | 57° |
| 2026-04-27 21:38 | 51.77204 | 3.77118 | 12866 ft | 341 kts | 58° |
| 2026-04-27 21:38 | 51.78450 | 3.80358 | 12504 ft | 337 kts | 57° |
| 2026-04-27 21:38 | 51.79674 | 3.83521 | 12135 ft | 334 kts | 57° |
| 2026-04-27 21:38 | 51.80905 | 3.86686 | 11772 ft | 331 kts | 57° |
| 2026-04-27 21:39 | 51.82132 | 3.89825 | 11395 ft | 329 kts | 57° |
| 2026-04-27 21:39 | 51.83353 | 3.92947 | 11015 ft | 328 kts | 57° |
| 2026-04-27 21:39 | 51.84569 | 3.96055 | 10726 ft | 324 kts | 57° |
| 2026-04-27 21:39 | 51.85756 | 3.99093 | 10579 ft | 315 kts | 57° |
| 2026-04-27 21:40 | 51.86899 | 4.02017 | 10443 ft | 306 kts | 57° |
| 2026-04-27 21:40 | 51.88023 | 4.04898 | 10309 ft | 298 kts | 57° |
| 2026-04-27 21:40 | 51.89122 | 4.07718 | 10108 ft | 293 kts | 57° |
| 2026-04-27 21:40 | 51.90244 | 4.10467 | 9803 ft | 291 kts | 49° |
| 2026-04-27 21:41 | 51.91808 | 4.12377 | 9564 ft | 284 kts | 20° |
| 2026-04-27 21:41 | 51.93696 | 4.13061 | 9451 ft | 278 kts | 1° |
| 2026-04-27 21:41 | 51.95630 | 4.12926 | 9096 ft | 278 kts | 355° |
| 2026-04-27 21:41 | 51.97561 | 4.12662 | 8791 ft | 277 kts | 355° |
| 2026-04-27 21:42 | 51.99481 | 4.12411 | 8498 ft | 276 kts | 356° |
| 2026-04-27 21:42 | 52.01394 | 4.12184 | 8218 ft | 274 kts | 356° |
| 2026-04-27 21:42 | 52.03289 | 4.11972 | 7939 ft | 272 kts | 356° |
| 2026-04-27 21:42 | 52.05178 | 4.11765 | 7678 ft | 271 kts | 356° |
| 2026-04-27 21:43 | 52.07020 | 4.11914 | 7388 ft | 269 kts | 18° |
| 2026-04-27 21:43 | 52.08715 | 4.13122 | 7157 ft | 265 kts | 25° |
| 2026-04-27 21:43 | 52.10382 | 4.14411 | 6867 ft | 264 kts | 25° |
| 2026-04-27 21:43 | 52.12039 | 4.15683 | 6598 ft | 263 kts | 25° |
| 2026-04-27 21:44 | 52.13690 | 4.16943 | 6308 ft | 261 kts | 25° |
| 2026-04-27 21:44 | 52.15335 | 4.18196 | 6029 ft | 260 kts | 25° |
| 2026-04-27 21:44 | 52.16954 | 4.19428 | 5758 ft | 258 kts | 25° |
| 2026-04-27 21:44 | 52.18573 | 4.20660 | 5499 ft | 256 kts | 25° |
| 2026-04-27 21:45 | 52.20100 | 4.22130 | 5196 ft | 255 kts | 44° |
| 2026-04-27 21:45 | 52.21092 | 4.24501 | 5017 ft | 252 kts | 63° |
| 2026-04-27 21:45 | 52.21523 | 4.26232 | 5009 ft | 244 kts | 66° |
| 2026-04-27 21:45 | 52.22261 | 4.29632 | 4851 ft | 236 kts | 67° |
| 2026-04-27 21:46 | 52.22625 | 4.31311 | 4806 ft | 230 kts | 68° |
| 2026-04-27 21:46 | 52.23149 | 4.33707 | 4678 ft | 224 kts | 68° |
| 2026-04-27 21:46 | 52.23528 | 4.36157 | 4503 ft | 226 kts | 88° |
| 2026-04-27 21:46 | 52.23141 | 4.38596 | 4328 ft | 223 kts | 108° |
| 2026-04-27 21:47 | 52.22504 | 4.40872 | 4088 ft | 216 kts | 112° |
| 2026-04-27 21:47 | 52.21864 | 4.43043 | 3918 ft | 206 kts | 110° |
| 2026-04-27 21:47 | 52.21273 | 4.45053 | 3828 ft | 193 kts | 111° |
| 2026-04-27 21:47 | 52.20839 | 4.47057 | 3617 ft | 181 kts | 88° |
| 2026-04-27 21:48 | 52.20826 | 4.49053 | 3441 ft | 178 kts | 86° |
| 2026-04-27 21:48 | 52.20801 | 4.51059 | 3235 ft | 180 kts | 87° |
| 2026-04-27 21:48 | 52.20987 | 4.53072 | 2944 ft | 174 kts | 58° |
| 2026-04-27 21:48 | 52.21697 | 4.54619 | 2720 ft | 170 kts | 56° |
| 2026-04-27 21:49 | 52.22238 | 4.56296 | 2502 ft | 168 kts | 59° |
| 2026-04-27 21:49 | 52.22850 | 4.57912 | 2275 ft | 167 kts | 56° |
| 2026-04-27 21:49 | 52.23480 | 4.59530 | 2025 ft | 170 kts | 58° |
| 2026-04-27 21:49 | 52.24092 | 4.61126 | 1802 ft | 161 kts | 57° |
| 2026-04-27 21:50 | 52.24666 | 4.62626 | 1569 ft | 151 kts | 58° |
| 2026-04-27 21:50 | 52.25207 | 4.64042 | 1386 ft | 146 kts | 58° |
| 2026-04-27 21:50 | 52.25736 | 4.65426 | 1215 ft | 138 kts | 58° |
| 2026-04-27 21:50 | 52.26235 | 4.66730 | 994 ft | 132 kts | 58° |
| 2026-04-27 21:51 | 52.26712 | 4.67986 | 809 ft | 135 kts | 58° |
| 2026-04-27 21:51 | 52.27213 | 4.69302 | 653 ft | 138 kts | 56° |
| 2026-04-27 21:51 | 52.27730 | 4.70639 | 475 ft | 140 kts | 57° |
| 2026-04-27 21:51 | 52.28247 | 4.71997 | 291 ft | 143 kts | 57° |
| 2026-04-27 21:52 | 52.28772 | 4.73383 | 83 ft | 142 kts | 56° |
| 2026-04-27 21:52 | 52.29287 | 4.74696 | 1 ft | 127 kts | 56° |
| 2026-04-27 21:52 | 52.29648 | 4.75632 | -2 ft | 67 kts | 57° |
| 2026-04-27 21:52 | 52.29847 | 4.76153 | -5 ft | 51 kts | 58° |
| 2026-04-27 21:53 | 52.30015 | 4.76523 | -3 ft | 31 kts | 36° |
| 2026-04-27 21:53 | 52.30193 | 4.76681 | -2 ft | 28 kts | 27° |
| 2026-04-27 21:53 | 52.30333 | 4.76879 | -2 ft | 26 kts | 59° |
| 2026-04-27 21:53 | 52.30422 | 4.77037 | -2 ft | 13 kts | 360° |
| 2026-04-27 21:54 | 52.30501 | 4.76973 | -2 ft | 13 kts | 326° |
| 2026-04-27 21:54 | 52.30575 | 4.76897 | -2 ft | 12 kts | 322° |
| 2026-04-27 21:54 | 52.30626 | 4.76790 | -2 ft | 12 kts | 314° |
| 2026-04-27 21:54 | 52.30650 | 4.76746 | -2 ft | 11 kts | 303° |
| 2026-04-27 21:55 | 52.30633 | 4.76655 | -2 ft | 7 kts | 239° |
| 2026-04-27 21:55 | 52.30625 | 4.76634 | -2 ft | 0 kts | 238° |